createdAt,value
2023-04-14T00:00:35.006Z,80.41
2023-04-14T00:01:15.032Z,80.23
2023-04-14T00:01:47.574Z,79.93
2023-04-14T00:02:19.723Z,80.21
2023-04-14T00:02:51.826Z,80.18
2023-04-14T00:03:23.955Z,79.68
2023-04-14T00:03:55.932Z,79.53
2023-04-14T00:04:27.810Z,80.00
2023-04-14T00:04:59.730Z,79.86
2023-04-14T00:05:32.471Z,79.88
2023-04-14T00:06:04.300Z,79.77
2023-04-14T00:06:36.051Z,79.44
2023-04-14T00:07:07.736Z,79.58
2023-04-14T00:07:39.316Z,79.61
2023-04-14T00:08:10.956Z,79.19
2023-04-14T00:08:42.542Z,79.37
2023-04-14T00:09:14.406Z,79.65
2023-04-14T00:09:46.048Z,79.80
2023-04-14T00:10:19.028Z,80.19
2023-04-14T00:10:50.786Z,79.43
2023-04-14T00:11:22.601Z,79.33
2023-04-14T00:11:54.358Z,79.28
2023-04-14T00:12:26.031Z,79.09
2023-04-14T00:12:57.766Z,79.28
2023-04-14T00:13:29.412Z,79.69
2023-04-14T00:14:03.113Z,79.45
2023-04-14T00:14:34.712Z,79.12
2023-04-14T00:15:06.946Z,79.14
2023-04-14T00:15:41.824Z,79.27
2023-04-14T00:16:13.446Z,79.12
2023-04-14T00:16:46.447Z,78.69
2023-04-14T00:17:18.127Z,78.26
2023-04-14T00:17:49.814Z,79.00
2023-04-14T00:18:21.546Z,79.00
2023-04-14T00:18:53.162Z,78.63
2023-04-14T00:19:24.724Z,78.40
2023-04-14T00:19:56.327Z,78.50
2023-04-14T00:20:28.010Z,78.19
2023-04-14T00:20:59.608Z,78.60
2023-04-14T00:21:31.722Z,78.89
2023-04-14T00:22:03.416Z,79.27
2023-04-14T00:22:35.127Z,79.45
2023-04-14T00:23:06.750Z,78.89
2023-04-14T00:23:38.429Z,79.08
2023-04-14T00:24:10.046Z,78.42
2023-04-14T00:24:43.611Z,78.53
2023-04-14T00:25:15.402Z,78.73
2023-04-14T00:25:49.512Z,78.20
2023-04-14T00:26:21.332Z,77.83
2023-04-14T00:26:53.106Z,77.57
2023-04-14T00:27:24.796Z,77.36
2023-04-14T00:27:56.592Z,76.96
2023-04-14T00:28:28.276Z,77.47
2023-04-14T00:29:00.163Z,77.60
2023-04-14T00:29:31.996Z,77.40
2023-04-14T00:30:04.055Z,77.39
2023-04-14T00:30:35.816Z,76.97
2023-04-14T00:31:08.407Z,76.95
2023-04-14T00:31:40.078Z,77.42
2023-04-14T00:32:11.806Z,77.34
2023-04-14T00:32:43.808Z,77.14
2023-04-14T00:33:15.542Z,77.14
2023-04-14T00:33:47.328Z,77.33
2023-04-14T00:34:18.934Z,77.14
2023-04-14T00:34:50.615Z,76.76
2023-04-14T00:35:22.421Z,76.40
2023-04-14T00:35:54.204Z,76.47
2023-04-14T00:36:26.224Z,76.50
2023-04-14T00:36:57.851Z,76.87
2023-04-14T00:37:30.815Z,76.72
2023-04-14T00:38:02.507Z,76.89
2023-04-14T00:38:34.074Z,76.63
2023-04-14T00:39:05.723Z,77.20
2023-04-14T00:39:37.415Z,76.82
2023-04-14T00:40:10.480Z,76.77
2023-04-14T00:40:42.207Z,76.35
2023-04-14T00:41:13.942Z,76.43
2023-04-14T00:41:45.515Z,76.14
2023-04-14T00:42:17.248Z,76.07
2023-04-14T00:42:48.890Z,75.98
2023-04-14T00:43:20.570Z,75.96
2023-04-14T00:43:55.545Z,76.12
2023-04-14T00:44:27.992Z,76.24
2023-04-14T00:44:59.656Z,76.38
2023-04-14T00:45:31.620Z,76.42
2023-04-14T00:46:03.384Z,76.47
2023-04-14T00:46:36.709Z,76.51
2023-04-14T00:47:08.312Z,77.00
2023-04-14T00:47:42.871Z,77.33
2023-04-14T00:48:16.846Z,76.63
2023-04-14T00:48:48.891Z,76.75
2023-04-14T00:49:20.622Z,76.28
2023-04-14T00:49:52.267Z,75.96
2023-04-14T00:50:24.446Z,76.02
2023-04-14T00:50:56.321Z,75.87
2023-04-14T00:51:28.280Z,75.90
2023-04-14T00:52:00.010Z,75.72
2023-04-14T00:52:32.874Z,75.66
2023-04-14T00:53:04.809Z,75.72
2023-04-14T00:53:36.536Z,75.59
2023-04-14T00:54:09.702Z,75.84
2023-04-14T00:54:42.115Z,75.90
2023-04-14T00:55:16.123Z,75.94
2023-04-14T00:55:47.798Z,76.16
2023-04-14T00:56:20.193Z,76.13
2023-04-14T00:56:54.156Z,75.89
2023-04-14T00:57:27.238Z,75.80
2023-04-14T00:57:59.021Z,75.94
2023-04-14T00:58:31.624Z,75.79
2023-04-14T00:59:04.069Z,75.68
2023-04-14T00:59:37.240Z,75.89
2023-04-14T01:00:09.749Z,75.87
2023-04-14T01:00:42.111Z,76.31
2023-04-14T01:01:14.309Z,75.98
2023-04-14T01:01:46.294Z,75.96
2023-04-14T01:02:18.154Z,75.47
2023-04-14T01:02:50.462Z,75.81
2023-04-14T01:03:24.986Z,76.40
2023-04-14T01:03:58.365Z,76.15
2023-04-14T01:04:44.734Z,76.46
2023-04-14T01:05:21.515Z,75.98
2023-04-14T01:05:53.223Z,76.82
2023-04-14T01:06:24.804Z,77.27
2023-04-14T01:06:56.473Z,76.86
2023-04-14T01:07:29.179Z,76.97
2023-04-14T01:08:02.567Z,77.07
2023-04-14T01:08:34.839Z,76.82
2023-04-14T01:09:06.674Z,76.95
2023-04-14T01:09:38.447Z,76.46
2023-04-14T01:10:11.507Z,76.67
2023-04-14T01:10:52.335Z,76.88
2023-04-14T01:11:23.909Z,76.94
2023-04-14T01:12:10.490Z,77.00
2023-04-14T01:13:01.198Z,76.28
2023-04-14T01:13:51.959Z,76.71
2023-04-14T01:14:42.534Z,76.76
2023-04-14T01:15:33.083Z,76.77
2023-04-14T01:16:13.096Z,76.20
2023-04-14T01:16:45.698Z,76.36
2023-04-14T01:17:27.350Z,76.49
2023-04-14T01:18:12.487Z,76.23
2023-04-14T01:19:18.833Z,76.20
2023-04-14T01:20:19.803Z,76.54
2023-04-14T01:21:01.318Z,76.93
2023-04-14T01:21:38.633Z,77.35
2023-04-14T01:22:13.227Z,76.84
2023-04-14T01:22:53.790Z,76.66
2023-04-14T01:23:32.304Z,75.66
2023-04-14T01:24:22.005Z,75.73
2023-04-14T01:25:02.949Z,75.91
2023-04-14T01:25:56.075Z,76.09
2023-04-14T01:26:31.820Z,75.63
2023-04-14T01:27:14.974Z,75.40
2023-04-14T01:27:56.018Z,75.24
2023-04-14T01:28:51.982Z,75.76
2023-04-14T01:29:51.764Z,74.69
2023-04-14T01:30:39.912Z,74.68
2023-04-14T01:31:30.656Z,75.51
2023-04-14T01:32:06.174Z,75.39
2023-04-14T01:32:44.452Z,75.56
2023-04-14T01:33:19.821Z,74.87
2023-04-14T01:34:05.758Z,75.32
2023-04-14T01:34:53.170Z,74.96
2023-04-14T01:35:38.711Z,74.98
2023-04-14T01:36:13.839Z,74.67
2023-04-14T01:36:58.572Z,75.18
2023-04-14T01:37:35.137Z,74.78
2023-04-14T01:38:14.906Z,74.38
2023-04-14T01:38:49.674Z,74.55
2023-04-14T01:39:23.905Z,74.62
2023-04-14T01:40:00.335Z,74.51
2023-04-14T01:40:33.548Z,74.36
2023-04-14T01:41:07.448Z,74.17
2023-04-14T01:41:42.572Z,74.16
2023-04-14T01:42:18.994Z,74.85
2023-04-14T01:42:59.771Z,74.75
2023-04-14T01:43:32.951Z,74.50
2023-04-14T01:44:06.607Z,74.25
2023-04-14T01:44:39.536Z,74.76
2023-04-14T01:45:19.120Z,75.19
2023-04-14T01:45:53.618Z,75.31
2023-04-14T01:46:25.578Z,74.54
2023-04-14T01:47:02.358Z,74.16
2023-04-14T01:47:36.162Z,74.49
2023-04-14T01:48:09.232Z,74.05
2023-04-14T01:48:41.904Z,73.91
2023-04-14T01:49:14.018Z,74.54
2023-04-14T01:49:48.639Z,75.28
2023-04-14T01:50:22.356Z,74.71
2023-04-14T01:50:56.027Z,74.55
2023-04-14T01:51:29.529Z,74.43
2023-04-14T01:52:02.863Z,74.00
2023-04-14T01:52:37.595Z,74.15
2023-04-14T01:53:12.328Z,74.10
2023-04-14T01:53:45.723Z,73.83
2023-04-14T01:54:18.864Z,74.15
2023-04-14T01:54:52.925Z,74.46
2023-04-14T01:55:27.390Z,74.22
2023-04-14T01:56:01.028Z,74.30
2023-04-14T01:56:34.173Z,74.39
2023-04-14T01:57:07.504Z,73.76
2023-04-14T01:57:40.652Z,73.96
2023-04-14T01:58:14.168Z,73.71
2023-04-14T01:58:47.456Z,74.68
2023-04-14T01:59:21.401Z,74.17
2023-04-14T01:59:57.049Z,74.25
2023-04-14T02:00:29.254Z,74.39
2023-04-14T02:01:00.977Z,74.67
2023-04-14T02:01:33.952Z,74.50
2023-04-14T02:02:08.994Z,74.34
2023-04-14T02:02:44.352Z,74.15
2023-04-14T02:03:18.764Z,74.37
2023-04-14T02:03:51.208Z,74.22
2023-04-14T02:04:27.598Z,74.22
2023-04-14T02:05:00.589Z,74.32
2023-04-14T02:05:38.521Z,74.18
2023-04-14T02:06:13.497Z,74.09
2023-04-14T02:06:45.834Z,74.53
2023-04-14T02:07:20.643Z,74.35
2023-04-14T02:07:54.825Z,74.70
2023-04-14T02:08:28.738Z,73.92
2023-04-14T02:09:05.855Z,74.22
2023-04-14T02:09:39.324Z,74.16
2023-04-14T02:10:11.563Z,74.00
2023-04-14T02:10:46.166Z,73.86
2023-04-14T02:11:19.516Z,73.83
2023-04-14T02:11:52.018Z,73.91
2023-04-14T02:12:25.759Z,73.88
2023-04-14T02:12:58.426Z,74.24
2023-04-14T02:13:32.288Z,74.02
2023-04-14T02:14:06.032Z,73.78
2023-04-14T02:14:40.942Z,73.89
2023-04-14T02:15:16.105Z,73.71
2023-04-14T02:15:52.251Z,73.72
2023-04-14T02:16:24.587Z,73.32
2023-04-14T02:16:59.166Z,73.07
2023-04-14T02:17:31.280Z,72.94
2023-04-14T02:18:05.966Z,73.12
2023-04-14T02:18:40.577Z,72.97
2023-04-14T02:19:13.440Z,73.13
2023-04-14T02:19:46.303Z,73.01
2023-04-14T02:20:21.203Z,73.04
2023-04-14T02:20:54.953Z,73.01
2023-04-14T02:21:28.573Z,73.12
2023-04-14T02:22:01.325Z,72.83
2023-04-14T02:22:33.623Z,73.07
2023-04-14T02:23:05.417Z,72.63
2023-04-14T02:23:37.090Z,72.40
2023-04-14T02:24:09.022Z,72.68
2023-04-14T02:24:40.805Z,72.76
2023-04-14T02:25:12.830Z,73.01
2023-04-14T02:25:55.458Z,73.19
2023-04-14T02:26:30.511Z,72.67
2023-04-14T02:27:14.824Z,72.89
2023-04-14T02:27:53.178Z,72.68
2023-04-14T02:28:30.154Z,72.55
2023-04-14T02:29:13.599Z,72.56
2023-04-14T02:29:56.392Z,72.73
2023-04-14T02:30:30.856Z,73.07
2023-04-14T02:31:07.387Z,72.79
2023-04-14T02:31:50.444Z,72.76
2023-04-14T02:32:29.689Z,72.68
2023-04-14T02:33:13.788Z,72.72
2023-04-14T02:33:46.630Z,72.70
2023-04-14T02:34:25.006Z,72.65
2023-04-14T02:35:14.522Z,72.65
2023-04-14T02:36:02.013Z,72.82
2023-04-14T02:36:46.274Z,72.80
2023-04-14T02:37:24.321Z,72.73
2023-04-14T02:38:07.689Z,72.78
2023-04-14T02:38:45.714Z,72.94
2023-04-14T02:39:24.202Z,72.97
2023-04-14T02:40:17.501Z,72.95
2023-04-14T02:40:50.021Z,73.10
2023-04-14T02:41:26.969Z,72.91
2023-04-14T02:42:11.050Z,73.04
2023-04-14T02:42:48.348Z,73.09
2023-04-14T02:43:32.252Z,73.11
2023-04-14T02:44:27.259Z,73.22
2023-04-14T02:45:05.684Z,73.05
2023-04-14T02:45:40.567Z,72.97
2023-04-14T02:46:16.666Z,72.85
2023-04-14T02:47:04.251Z,72.86
2023-04-14T02:47:38.696Z,72.94
2023-04-14T02:48:13.115Z,72.99
2023-04-14T02:48:47.488Z,73.25
2023-04-14T02:49:20.426Z,73.24
2023-04-14T02:49:54.242Z,73.01
2023-04-14T02:50:27.249Z,73.29
2023-04-14T02:50:59.763Z,73.34
2023-04-14T02:51:36.743Z,73.40
2023-04-14T02:52:20.292Z,73.41
2023-04-14T02:52:54.167Z,73.79
2023-04-14T02:53:27.004Z,73.25
2023-04-14T02:53:59.176Z,73.50
2023-04-14T02:54:35.018Z,73.24
2023-04-14T02:55:07.833Z,73.50
2023-04-14T02:55:40.063Z,73.38
2023-04-14T02:56:12.240Z,73.39
2023-04-14T02:56:44.663Z,73.45
2023-04-14T02:57:17.703Z,73.15
2023-04-14T02:57:51.621Z,73.32
2023-04-14T02:58:23.472Z,73.09
2023-04-14T02:58:55.279Z,73.27
2023-04-14T02:59:27.924Z,73.32
2023-04-14T03:00:00.467Z,73.33
2023-04-14T03:00:33.036Z,73.29
2023-04-14T03:01:05.609Z,73.35
2023-04-14T03:01:38.809Z,73.31
2023-04-14T03:02:12.186Z,73.66
2023-04-14T03:02:45.450Z,73.30
2023-04-14T03:03:18.829Z,73.32
2023-04-14T03:03:53.407Z,73.40
2023-04-14T03:04:26.970Z,73.36
2023-04-14T03:04:59.586Z,73.41
2023-04-14T03:05:33.231Z,73.40
2023-04-14T03:06:07.209Z,73.26
2023-04-14T03:06:39.343Z,73.30
2023-04-14T03:07:13.700Z,73.32
2023-04-14T03:07:47.140Z,73.35
2023-04-14T03:08:19.632Z,73.66
2023-04-14T03:08:52.279Z,74.64
2023-04-14T03:09:24.617Z,74.60
2023-04-14T03:09:57.124Z,74.57
2023-04-14T03:10:29.380Z,74.81
2023-04-14T03:11:02.353Z,73.99
2023-04-14T03:11:36.838Z,73.95
2023-04-14T03:12:13.365Z,74.46
2023-04-14T03:12:46.924Z,74.42
2023-04-14T03:13:20.527Z,74.64
2023-04-14T03:13:56.359Z,74.36
2023-04-14T03:14:28.363Z,74.20
2023-04-14T03:15:02.216Z,74.03
2023-04-14T03:15:34.679Z,74.23
2023-04-14T03:16:06.970Z,74.07
2023-04-14T03:16:40.567Z,74.41
2023-04-14T03:17:14.853Z,74.12
2023-04-14T03:17:54.385Z,74.22
2023-04-14T03:18:28.187Z,74.41
2023-04-14T03:19:00.668Z,74.96
2023-04-14T03:19:33.971Z,74.56
2023-04-14T03:20:06.276Z,75.23
2023-04-14T03:20:41.567Z,74.92
2023-04-14T03:21:16.749Z,75.57
2023-04-14T03:21:50.699Z,75.46
2023-04-14T03:22:26.748Z,75.68
2023-04-14T03:23:01.909Z,75.77
2023-04-14T03:23:36.175Z,75.84
2023-04-14T03:24:08.602Z,76.47
2023-04-14T03:24:41.709Z,75.57
2023-04-14T03:25:13.380Z,75.61
2023-04-14T03:25:46.653Z,75.54
2023-04-14T03:26:20.683Z,75.83
2023-04-14T03:26:57.528Z,75.46
2023-04-14T03:27:31.641Z,75.50
2023-04-14T03:28:06.594Z,75.73
2023-04-14T03:28:40.283Z,75.97
2023-04-14T03:29:15.134Z,75.96
2023-04-14T03:29:51.286Z,75.95
2023-04-14T03:30:27.109Z,76.27
2023-04-14T03:31:01.451Z,75.82
2023-04-14T03:31:37.110Z,75.50
2023-04-14T03:32:10.185Z,75.77
2023-04-14T03:32:43.697Z,75.64
2023-04-14T03:33:19.988Z,75.99
2023-04-14T03:33:57.186Z,76.22
2023-04-14T03:34:31.112Z,75.91
2023-04-14T03:35:03.316Z,76.09
2023-04-14T03:35:36.719Z,76.22
2023-04-14T03:36:09.104Z,76.64
2023-04-14T03:36:42.732Z,75.98
2023-04-14T03:37:18.331Z,76.22
2023-04-14T03:37:53.167Z,76.54
2023-04-14T03:38:27.991Z,76.72
2023-04-14T03:39:03.104Z,76.05
2023-04-14T03:39:38.787Z,76.28
2023-04-14T03:40:11.504Z,76.42
2023-04-14T03:40:47.929Z,76.24
2023-04-14T03:41:21.207Z,76.45
2023-04-14T03:41:56.002Z,76.60
2023-04-14T03:42:29.384Z,76.02
2023-04-14T03:43:02.748Z,76.23
2023-04-14T03:43:35.232Z,76.01
2023-04-14T03:44:14.655Z,76.36
2023-04-14T03:44:51.693Z,76.99
2023-04-14T03:45:23.908Z,76.97
2023-04-14T03:45:57.000Z,76.19
2023-04-14T03:46:29.281Z,75.95
2023-04-14T03:47:03.792Z,76.13
2023-04-14T03:47:36.442Z,76.43
2023-04-14T03:48:12.039Z,76.22
2023-04-14T03:48:46.719Z,76.15
2023-04-14T03:49:21.236Z,76.28
2023-04-14T03:49:57.218Z,76.02
2023-04-14T03:50:32.194Z,76.50
2023-04-14T03:51:06.191Z,76.64
2023-04-14T03:51:40.521Z,76.63
2023-04-14T03:52:14.788Z,76.83
2023-04-14T03:52:47.553Z,76.92
2023-04-14T03:53:21.340Z,77.15
2023-04-14T03:53:57.966Z,76.80
2023-04-14T03:54:32.485Z,76.67
2023-04-14T03:55:06.888Z,76.88
2023-04-14T03:55:40.796Z,76.57
2023-04-14T03:56:14.059Z,76.75
2023-04-14T03:56:48.492Z,76.98
2023-04-14T03:57:22.438Z,77.23
2023-04-14T03:57:58.721Z,77.03
2023-04-14T03:58:31.404Z,77.50
2023-04-14T03:59:04.325Z,77.62
2023-04-14T03:59:38.667Z,77.41
2023-04-14T04:00:12.620Z,77.57
2023-04-14T04:00:45.364Z,77.37
2023-04-14T04:01:19.016Z,77.27
2023-04-14T04:01:52.524Z,77.30
2023-04-14T04:02:25.822Z,77.31
2023-04-14T04:02:58.754Z,77.25
2023-04-14T04:03:31.431Z,77.43
2023-04-14T04:04:06.097Z,77.78
2023-04-14T04:04:38.267Z,77.52
2023-04-14T04:05:10.982Z,78.01
2023-04-14T04:05:44.048Z,77.74
2023-04-14T04:06:16.130Z,77.66
2023-04-14T04:06:50.075Z,77.64
2023-04-14T04:07:22.615Z,77.43
2023-04-14T04:07:56.795Z,77.57
2023-04-14T04:08:29.891Z,77.59
2023-04-14T04:09:02.599Z,77.11
2023-04-14T04:09:38.191Z,77.41
2023-04-14T04:10:12.620Z,77.58
2023-04-14T04:10:46.906Z,77.59
2023-04-14T04:11:20.864Z,77.53
2023-04-14T04:11:54.032Z,77.63
2023-04-14T04:12:26.464Z,77.81
2023-04-14T04:12:59.667Z,77.57
2023-04-14T04:13:34.147Z,77.62
2023-04-14T04:14:07.198Z,77.60
2023-04-14T04:14:40.453Z,77.40
2023-04-14T04:15:12.339Z,77.48
2023-04-14T04:15:45.550Z,77.72
2023-04-14T04:16:18.625Z,77.82
2023-04-14T04:16:51.613Z,77.68
2023-04-14T04:17:25.150Z,77.43
2023-04-14T04:17:58.555Z,77.46
2023-04-14T04:18:31.854Z,77.82
2023-04-14T04:19:07.427Z,77.67
2023-04-14T04:19:42.780Z,77.71
2023-04-14T04:20:15.186Z,77.79
2023-04-14T04:20:47.484Z,77.77
2023-04-14T04:21:20.252Z,77.93
2023-04-14T04:21:57.478Z,77.69
2023-04-14T04:22:31.175Z,77.74
2023-04-14T04:23:06.046Z,77.49
2023-04-14T04:23:41.708Z,77.59
2023-04-14T04:24:17.086Z,77.38
2023-04-14T04:24:49.071Z,77.39
2023-04-14T04:25:20.728Z,77.23
2023-04-14T04:25:53.996Z,77.60
2023-04-14T04:26:26.049Z,77.41
2023-04-14T04:26:58.666Z,77.21
2023-04-14T04:27:30.542Z,77.31
2023-04-14T04:28:02.715Z,77.60
2023-04-14T04:28:34.509Z,77.38
2023-04-14T04:29:07.249Z,77.32
2023-04-14T04:29:39.501Z,77.24
2023-04-14T04:30:12.588Z,77.17
2023-04-14T04:30:46.595Z,77.03
2023-04-14T04:31:19.141Z,76.99
2023-04-14T04:31:52.704Z,77.11
2023-04-14T04:32:27.036Z,77.16
2023-04-14T04:33:02.100Z,77.14
2023-04-14T04:33:34.518Z,77.10
2023-04-14T04:34:07.418Z,77.10
2023-04-14T04:34:39.130Z,77.21
2023-04-14T04:35:12.303Z,77.26
2023-04-14T04:35:44.674Z,77.66
2023-04-14T04:36:16.869Z,77.15
2023-04-14T04:36:48.609Z,77.40
2023-04-14T04:37:21.708Z,77.51
2023-04-14T04:37:54.211Z,77.40
2023-04-14T04:38:26.039Z,77.43
2023-04-14T04:38:58.751Z,77.26
2023-04-14T04:39:31.147Z,77.12
2023-04-14T04:40:03.937Z,77.24
2023-04-14T04:40:37.504Z,77.80
2023-04-14T04:41:21.289Z,77.65
2023-04-14T04:42:13.117Z,77.29
2023-04-14T04:42:45.141Z,77.44
2023-04-14T04:43:19.826Z,77.37
2023-04-14T04:43:51.657Z,77.28
2023-04-14T04:44:23.272Z,77.50
2023-04-14T04:44:55.281Z,77.42
2023-04-14T04:45:48.936Z,77.41
2023-04-14T04:46:32.780Z,77.41
2023-04-14T04:47:04.746Z,77.62
2023-04-14T04:47:36.454Z,77.53
2023-04-14T04:48:08.284Z,77.50
2023-04-14T04:48:39.887Z,77.62
2023-04-14T04:49:11.581Z,77.67
2023-04-14T04:49:43.325Z,77.78
2023-04-14T04:50:16.017Z,77.70
2023-04-14T04:50:48.427Z,77.40
2023-04-14T04:51:20.228Z,77.45
2023-04-14T04:51:52.097Z,77.30
2023-04-14T04:52:23.696Z,77.66
2023-04-14T04:52:55.367Z,77.66
2023-04-14T04:53:27.186Z,77.24
2023-04-14T04:53:58.762Z,77.42
2023-04-14T04:54:30.416Z,77.50
2023-04-14T04:55:02.001Z,77.47
2023-04-14T04:55:33.646Z,77.39
2023-04-14T04:56:05.965Z,77.36
2023-04-14T04:56:38.099Z,77.53
2023-04-14T04:57:10.454Z,76.96
2023-04-14T04:57:43.148Z,77.05
2023-04-14T04:58:14.764Z,77.08
2023-04-14T04:58:46.978Z,77.05
2023-04-14T04:59:18.550Z,77.09
2023-04-14T04:59:50.290Z,77.20
2023-04-14T05:00:23.067Z,77.00
2023-04-14T05:00:54.844Z,77.31
2023-04-14T05:01:26.582Z,77.14
2023-04-14T05:01:58.245Z,77.23
2023-04-14T05:02:29.953Z,77.27
2023-04-14T05:03:01.723Z,77.62
2023-04-14T05:03:33.490Z,77.32
2023-04-14T05:04:05.564Z,77.13
2023-04-14T05:04:37.182Z,77.20
2023-04-14T05:05:10.106Z,77.17
2023-04-14T05:05:41.750Z,77.29
2023-04-14T05:06:13.464Z,77.17
2023-04-14T05:06:45.234Z,76.87
2023-04-14T05:07:17.198Z,76.93
2023-04-14T05:07:48.759Z,77.05
2023-04-14T05:08:20.330Z,76.93
2023-04-14T05:08:53.290Z,76.83
2023-04-14T05:09:24.976Z,76.85
2023-04-14T05:09:56.561Z,76.84
2023-04-14T05:10:28.183Z,76.79
2023-04-14T05:10:59.832Z,76.79
2023-04-14T05:11:32.488Z,76.84
2023-04-14T05:12:04.293Z,77.09
2023-04-14T05:12:35.952Z,77.18
2023-04-14T05:13:07.520Z,76.99
2023-04-14T05:13:39.263Z,76.99
2023-04-14T05:14:10.885Z,77.08
2023-04-14T05:14:42.471Z,77.27
2023-04-14T05:15:14.109Z,77.11
2023-04-14T05:15:46.053Z,77.02
2023-04-14T05:16:18.528Z,76.81
2023-04-14T05:16:50.507Z,76.85
2023-04-14T05:17:22.287Z,76.93
2023-04-14T05:17:53.961Z,76.87
2023-04-14T05:18:26.506Z,76.39
2023-04-14T05:18:58.234Z,76.53
2023-04-14T05:19:29.917Z,76.68
2023-04-14T05:20:02.730Z,76.72
2023-04-14T05:20:34.998Z,76.92
2023-04-14T05:21:08.704Z,76.86
2023-04-14T05:21:40.580Z,76.94
2023-04-14T05:22:13.030Z,76.72
2023-04-14T05:22:44.665Z,76.87
2023-04-14T05:23:17.066Z,76.76
2023-04-14T05:23:48.808Z,76.87
2023-04-14T05:24:20.385Z,76.68
2023-04-14T05:24:52.356Z,76.65
2023-04-14T05:25:24.100Z,76.72
2023-04-14T05:26:01.291Z,76.74
2023-04-14T05:27:14.834Z,76.84
2023-04-14T05:27:46.672Z,76.84
2023-04-14T05:28:18.273Z,75.49
2023-04-14T05:28:49.850Z,73.37
2023-04-14T05:29:21.580Z,73.40
2023-04-14T05:29:53.169Z,74.35
2023-04-14T05:30:24.849Z,74.66
2023-04-14T05:30:56.588Z,75.05
2023-04-14T05:31:28.406Z,75.81
2023-04-14T05:32:00.029Z,75.74
2023-04-14T05:32:31.667Z,75.89
2023-04-14T05:33:03.532Z,75.84
2023-04-14T05:33:35.594Z,76.19
2023-04-14T05:34:07.185Z,76.13
2023-04-14T05:34:38.782Z,75.70
2023-04-14T05:35:10.361Z,74.47
2023-04-14T05:35:43.066Z,72.52
2023-04-14T05:36:14.727Z,71.74
2023-04-14T05:36:46.683Z,73.14
2023-04-14T05:37:18.670Z,72.72
2023-04-14T05:37:50.267Z,73.70
2023-04-14T05:38:21.982Z,74.35
2023-04-14T05:38:53.589Z,74.90
2023-04-14T05:39:25.168Z,74.85
2023-04-14T05:39:56.847Z,75.17
2023-04-14T05:40:29.018Z,74.53
2023-04-14T05:41:00.596Z,75.12
2023-04-14T05:41:32.245Z,75.73
2023-04-14T05:42:03.958Z,75.33
2023-04-14T05:42:35.659Z,75.80
2023-04-14T05:43:07.352Z,76.08
2023-04-14T05:43:39.028Z,76.27
2023-04-14T05:44:10.594Z,76.22
2023-04-14T05:44:42.272Z,75.66
2023-04-14T05:45:13.883Z,74.93
2023-04-14T05:45:48.599Z,75.60
2023-04-14T05:46:20.390Z,76.30
2023-04-14T05:46:52.595Z,76.75
2023-04-14T05:47:24.296Z,76.37
2023-04-14T05:47:56.153Z,75.18
2023-04-14T05:48:30.953Z,74.72
2023-04-14T05:49:04.911Z,74.96
2023-04-14T05:49:36.531Z,75.00
2023-04-14T05:50:08.620Z,75.35
2023-04-14T05:50:40.997Z,75.00
2023-04-14T05:51:14.542Z,75.03
2023-04-14T05:51:46.150Z,75.81
2023-04-14T05:52:17.784Z,76.03
2023-04-14T05:52:49.767Z,76.21
2023-04-14T05:53:21.678Z,76.02
2023-04-14T05:53:53.601Z,75.33
2023-04-14T05:54:25.244Z,76.19
2023-04-14T05:54:56.846Z,75.39
2023-04-14T05:55:28.644Z,76.14
2023-04-14T05:56:00.409Z,76.08
2023-04-14T05:56:32.075Z,75.49
2023-04-14T05:57:03.847Z,75.39
2023-04-14T05:57:36.891Z,75.23
2023-04-14T05:58:08.671Z,76.25
2023-04-14T05:58:40.302Z,75.20
2023-04-14T05:59:11.982Z,76.02
2023-04-14T05:59:43.753Z,74.88
2023-04-14T06:00:15.653Z,74.41
2023-04-14T06:00:47.508Z,74.86
2023-04-14T06:01:19.071Z,73.61
2023-04-14T06:01:50.905Z,74.03
2023-04-14T06:02:22.847Z,74.23
2023-04-14T06:02:54.758Z,73.72
2023-04-14T06:03:26.694Z,74.41
2023-04-14T06:03:58.647Z,75.09
2023-04-14T06:04:30.621Z,75.14
2023-04-14T06:05:02.902Z,75.47
2023-04-14T06:05:34.638Z,76.00
2023-04-14T06:06:06.548Z,76.54
2023-04-14T06:06:38.367Z,76.22
2023-04-14T06:07:09.998Z,75.96
2023-04-14T06:07:42.090Z,76.09
2023-04-14T06:08:14.151Z,75.65
2023-04-14T06:08:46.106Z,75.62
2023-04-14T06:09:17.756Z,76.42
2023-04-14T06:09:49.365Z,76.26
2023-04-14T06:10:21.222Z,76.35
2023-04-14T06:10:52.868Z,77.22
2023-04-14T06:11:24.454Z,77.25
2023-04-14T06:11:56.825Z,77.30
2023-04-14T06:12:28.709Z,77.70
2023-04-14T06:13:00.420Z,77.84
2023-04-14T06:13:34.854Z,77.71
2023-04-14T06:14:07.924Z,77.12
2023-04-14T06:14:39.934Z,78.23
2023-04-14T06:15:11.646Z,77.46
2023-04-14T06:15:43.310Z,75.52
2023-04-14T06:16:16.037Z,74.97
2023-04-14T06:16:48.139Z,75.58
2023-04-14T06:17:19.858Z,75.84
2023-04-14T06:17:51.617Z,75.04
2023-04-14T06:18:23.328Z,75.54
2023-04-14T06:18:54.909Z,75.00
2023-04-14T06:19:26.550Z,75.70
2023-04-14T06:19:58.326Z,76.69
2023-04-14T06:20:32.334Z,75.98
2023-04-14T06:21:04.521Z,76.33
2023-04-14T06:21:36.164Z,77.14
2023-04-14T06:22:08.633Z,77.55
2023-04-14T06:22:40.666Z,77.71
2023-04-14T06:23:12.277Z,78.02
2023-04-14T06:23:43.986Z,76.68
2023-04-14T06:24:15.662Z,76.44
2023-04-14T06:24:47.233Z,76.72
2023-04-14T06:25:18.884Z,76.41
2023-04-14T06:25:52.360Z,77.08
2023-04-14T06:26:24.095Z,77.64
2023-04-14T06:26:55.696Z,77.86
2023-04-14T06:27:27.711Z,78.49
2023-04-14T06:27:59.473Z,78.08
2023-04-14T06:28:31.301Z,78.32
2023-04-14T06:29:03.253Z,78.46
2023-04-14T06:29:35.592Z,78.03
2023-04-14T06:30:08.024Z,77.60
2023-04-14T06:30:39.587Z,78.30
2023-04-14T06:31:12.633Z,78.55
2023-04-14T06:31:44.361Z,77.47
2023-04-14T06:32:16.567Z,77.45
2023-04-14T06:32:51.608Z,76.19
2023-04-14T06:33:23.974Z,76.19
2023-04-14T06:33:55.652Z,76.38
2023-04-14T06:34:27.369Z,76.99
2023-04-14T06:34:59.196Z,77.60
2023-04-14T06:35:33.863Z,77.84
2023-04-14T06:36:06.081Z,78.35
2023-04-14T06:36:37.695Z,78.62
2023-04-14T06:37:09.296Z,77.67
2023-04-14T06:37:41.002Z,76.44
2023-04-14T06:38:12.627Z,76.27
2023-04-14T06:38:44.573Z,75.67
2023-04-14T06:39:16.157Z,75.92
2023-04-14T06:39:47.747Z,76.36
2023-04-14T06:40:19.477Z,75.83
2023-04-14T06:40:53.210Z,76.77
2023-04-14T06:41:25.036Z,76.10
2023-04-14T06:41:57.180Z,76.25
2023-04-14T06:42:28.788Z,76.27
2023-04-14T06:43:00.379Z,76.53
2023-04-14T06:43:31.977Z,75.11
2023-04-14T06:44:03.688Z,75.47
2023-04-14T06:44:35.390Z,75.23
2023-04-14T06:45:07.543Z,75.79
2023-04-14T06:45:39.344Z,76.98
2023-04-14T06:46:11.301Z,77.44
2023-04-14T06:46:43.014Z,77.38
2023-04-14T06:47:19.369Z,76.89
2023-04-14T06:47:51.866Z,77.00
2023-04-14T06:48:23.791Z,77.78
2023-04-14T06:48:55.450Z,77.48
2023-04-14T06:49:27.095Z,77.64
2023-04-14T06:49:58.998Z,77.80
2023-04-14T06:50:30.570Z,77.66
2023-04-14T06:51:02.231Z,77.54
2023-04-14T06:51:34.403Z,77.71
2023-04-14T06:52:06.513Z,77.37
2023-04-14T06:52:38.231Z,75.48
2023-04-14T06:53:09.976Z,75.31
2023-04-14T06:53:41.594Z,76.06
2023-04-14T06:54:13.162Z,74.94
2023-04-14T06:54:44.775Z,75.79
2023-04-14T06:55:17.047Z,76.02
2023-04-14T06:55:59.219Z,76.28
2023-04-14T06:56:31.274Z,76.68
2023-04-14T06:57:02.944Z,76.96
2023-04-14T06:57:34.533Z,75.55
2023-04-14T06:58:06.159Z,76.13
2023-04-14T06:58:37.896Z,76.23
2023-04-14T06:59:09.577Z,76.08
2023-04-14T06:59:41.870Z,76.53
2023-04-14T07:00:13.839Z,76.95
2023-04-14T07:00:45.494Z,76.36
2023-04-14T07:01:17.307Z,75.55
2023-04-14T07:01:49.125Z,75.55
2023-04-14T07:02:20.996Z,75.74
2023-04-14T07:02:52.921Z,76.38
2023-04-14T07:03:25.108Z,77.23
2023-04-14T07:03:57.057Z,77.24
2023-04-14T07:04:28.774Z,77.36
2023-04-14T07:05:00.506Z,77.73
2023-04-14T07:05:32.185Z,77.98
2023-04-14T07:06:09.358Z,78.26
2023-04-14T07:06:41.113Z,77.91
2023-04-14T07:07:14.440Z,77.68
2023-04-14T07:07:46.202Z,77.93
2023-04-14T07:08:21.414Z,77.75
2023-04-14T07:08:53.427Z,77.68
2023-04-14T07:09:25.086Z,77.85
2023-04-14T07:09:57.029Z,78.01
2023-04-14T07:10:28.711Z,77.86
2023-04-14T07:11:01.856Z,78.16
2023-04-14T07:11:33.495Z,78.20
2023-04-14T07:12:06.147Z,78.41
2023-04-14T07:12:37.781Z,78.19
2023-04-14T07:13:09.388Z,78.29
2023-04-14T07:13:41.941Z,78.28
2023-04-14T07:14:13.604Z,78.26
2023-04-14T07:14:52.054Z,78.37
2023-04-14T07:15:23.739Z,78.53
2023-04-14T07:15:55.832Z,78.61
2023-04-14T07:16:27.705Z,78.58